sensor_id;sensor_type;location;lat;lon;timestamp;pressure;altitude;pressure_sealevel;temperature;humidity
34103;BME280;20381;54.498;18.206;2023-04-28T00:01:51;99942.14;;;2.03;55.61
34103;BME280;20381;54.498;18.206;2023-04-28T00:04:19;99946.83;;;2.06;55.29
34103;BME280;20381;54.498;18.206;2023-04-28T00:06:45;99949.81;;;2.09;55.25
34103;BME280;20381;54.498;18.206;2023-04-28T00:09:12;99949.78;;;2.12;56.04
34103;BME280;20381;54.498;18.206;2023-04-28T00:11:39;99945.03;;;2.14;55.81
34103;BME280;20381;54.498;18.206;2023-04-28T00:14:05;99951.44;;;2.17;55.89
34103;BME280;20381;54.498;18.206;2023-04-28T00:16:32;99951.44;;;2.19;56.05
34103;BME280;20381;54.498;18.206;2023-04-28T00:18:58;99950.56;;;2.20;55.60
34103;BME280;20381;54.498;18.206;2023-04-28T00:21:24;99956.59;;;2.19;55.58
34103;BME280;20381;54.498;18.206;2023-04-28T00:23:50;99955.81;;;2.11;55.51
34103;BME280;20381;54.498;18.206;2023-04-28T00:26:17;99951.51;;;2.10;55.71
34103;BME280;20381;54.498;18.206;2023-04-28T00:28:43;99953.20;;;2.14;55.99
34103;BME280;20381;54.498;18.206;2023-04-28T00:31:11;99954.90;;;2.16;55.99
34103;BME280;20381;54.498;18.206;2023-04-28T00:33:39;99952.77;;;2.13;55.90
34103;BME280;20381;54.498;18.206;2023-04-28T00:36:06;99957.51;;;2.13;56.02
34103;BME280;20381;54.498;18.206;2023-04-28T00:38:32;99959.23;;;2.10;55.88
34103;BME280;20381;54.498;18.206;2023-04-28T00:40:59;99954.11;;;2.07;56.16
34103;BME280;20381;54.498;18.206;2023-04-28T00:43:25;99957.59;;;2.03;56.04
34103;BME280;20381;54.498;18.206;2023-04-28T00:45:51;99962.83;;;1.90;56.01
34103;BME280;20381;54.498;18.206;2023-04-28T00:48:18;99961.63;;;1.81;56.06
34103;BME280;20381;54.498;18.206;2023-04-28T00:50:45;99964.72;;;1.70;56.17
34103;BME280;20381;54.498;18.206;2023-04-28T00:53:13;99958.73;;;1.65;56.26
34103;BME280;20381;54.498;18.206;2023-04-28T00:55:40;99967.34;;;1.64;56.39
34103;BME280;20381;54.498;18.206;2023-04-28T00:58:07;99966.48;;;1.62;56.62
34103;BME280;20381;54.498;18.206;2023-04-28T01:00:34;99966.48;;;1.62;56.70
34103;BME280;20381;54.498;18.206;2023-04-28T01:03:01;99968.22;;;1.63;57.00
34103;BME280;20381;54.498;18.206;2023-04-28T01:05:29;99965.61;;;1.64;57.07
34103;BME280;20381;54.498;18.206;2023-04-28T01:07:56;99964.81;;;1.58;56.96
34103;BME280;20381;54.498;18.206;2023-04-28T01:10:22;99965.66;;;1.58;56.87
34103;BME280;20381;54.498;18.206;2023-04-28T01:12:48;99964.84;;;1.54;56.90
34103;BME280;20381;54.498;18.206;2023-04-28T01:15:17;99963.11;;;1.53;57.19
34103;BME280;20381;54.498;18.206;2023-04-28T01:17:44;99963.11;;;1.55;57.23
34103;BME280;20381;54.498;18.206;2023-04-28T01:20:12;99962.27;;;1.54;57.32
34103;BME280;20381;54.498;18.206;2023-04-28T01:22:39;99962.67;;;1.55;57.42
34103;BME280;20381;54.498;18.206;2023-04-28T01:25:06;99970.80;;;1.56;57.60
34103;BME280;20381;54.498;18.206;2023-04-28T01:27:32;99969.55;;;1.55;57.28
34103;BME280;20381;54.498;18.206;2023-04-28T01:29:58;99968.25;;;1.53;57.61
34103;BME280;20381;54.498;18.206;2023-04-28T01:32:25;99966.56;;;1.52;57.56
34103;BME280;20381;54.498;18.206;2023-04-28T01:34:51;99973.03;;;1.46;57.47
34103;BME280;20381;54.498;18.206;2023-04-28T01:37:17;99970.09;;;1.36;57.48
34103;BME280;20381;54.498;18.206;2023-04-28T01:39:43;99971.43;;;1.27;57.77
34103;BME280;20381;54.498;18.206;2023-04-28T01:42:10;99976.16;;;1.23;57.79
34103;BME280;20381;54.498;18.206;2023-04-28T01:44:37;99976.19;;;1.17;57.79
34103;BME280;20381;54.498;18.206;2023-04-28T01:47:03;99967.66;;;1.08;57.70
34103;BME280;20381;54.498;18.206;2023-04-28T01:49:31;99966.01;;;0.98;57.87
34103;BME280;20381;54.498;18.206;2023-04-28T01:51:57;99976.28;;;0.95;57.95
34103;BME280;20381;54.498;18.206;2023-04-28T01:54:24;99977.59;;;0.89;58.13
34103;BME280;20381;54.498;18.206;2023-04-28T01:56:51;99984.02;;;0.89;58.22
34103;BME280;20381;54.498;18.206;2023-04-28T01:59:17;99978.05;;;0.87;58.47
34103;BME280;20381;54.498;18.206;2023-04-28T02:01:45;99984.02;;;0.89;58.41
34103;BME280;20381;54.498;18.206;2023-04-28T02:04:11;99978.04;;;0.90;58.82
34103;BME280;20381;54.498;18.206;2023-04-28T02:06:37;99974.59;;;0.91;58.68
34103;BME280;20381;54.498;18.206;2023-04-28T02:09:03;99983.15;;;0.96;58.66
34103;BME280;20381;54.498;18.206;2023-04-28T02:11:31;99984.41;;;1.04;58.92
34103;BME280;20381;54.498;18.206;2023-04-28T02:13:58;99983.06;;;1.11;58.84
34103;BME280;20381;54.498;18.206;2023-04-28T02:16:24;99984.78;;;1.16;58.70
34103;BME280;20381;54.498;18.206;2023-04-28T02:18:50;99982.19;;;1.19;58.89
34103;BME280;20381;54.498;18.206;2023-04-28T02:21:16;99985.64;;;1.18;58.78
34103;BME280;20381;54.498;18.206;2023-04-28T02:23:43;99982.19;;;1.19;58.92
34103;BME280;20381;54.498;18.206;2023-04-28T02:26:11;99989.02;;;1.23;58.93
34103;BME280;20381;54.498;18.206;2023-04-28T02:28:37;99984.35;;;1.18;59.20
34103;BME280;20381;54.498;18.206;2023-04-28T02:31:06;99984.80;;;1.13;59.19
34103;BME280;20381;54.498;18.206;2023-04-28T02:33:33;99981.39;;;1.07;59.72
34103;BME280;20381;54.498;18.206;2023-04-28T02:36:00;99986.54;;;1.03;59.76
34103;BME280;20381;54.498;18.206;2023-04-28T02:38:27;99977.13;;;1.02;59.87
34103;BME280;20381;54.498;18.206;2023-04-28T02:41:01;99979.69;;;1.00;60.02
34103;BME280;20381;54.498;18.206;2023-04-28T02:43:30;99983.98;;;1.01;59.67
34103;BME280;20381;54.498;18.206;2023-04-28T02:45:57;99983.11;;;1.01;59.60
34103;BME280;20381;54.498;18.206;2023-04-28T02:48:24;99978.84;;;1.01;59.77
34103;BME280;20381;54.498;18.206;2023-04-28T02:50:50;99986.95;;;1.05;59.68
34103;BME280;20381;54.498;18.206;2023-04-28T02:53:20;99977.08;;;1.06;59.74
34103;BME280;20381;54.498;18.206;2023-04-28T02:55:47;99983.94;;;1.09;59.70
34103;BME280;20381;54.498;18.206;2023-04-28T02:58:16;99986.10;;;1.03;59.74
34103;BME280;20381;54.498;18.206;2023-04-28T03:00:43;99990.81;;;1.05;59.91
34103;BME280;20381;54.498;18.206;2023-04-28T03:03:10;99980.52;;;1.08;59.78
34103;BME280;20381;54.498;18.206;2023-04-28T03:05:36;99988.23;;;1.08;59.88
34103;BME280;20381;54.498;18.206;2023-04-28T03:08:02;99985.27;;;1.04;59.94
34103;BME280;20381;54.498;18.206;2023-04-28T03:10:29;99985.69;;;1.02;59.91
34103;BME280;20381;54.498;18.206;2023-04-28T03:12:55;99984.01;;;0.98;60.02
34103;BME280;20381;54.498;18.206;2023-04-28T03:15:22;99992.58;;;0.94;60.21
34103;BME280;20381;54.498;18.206;2023-04-28T03:17:48;99991.73;;;0.89;60.22
34103;BME280;20381;54.498;18.206;2023-04-28T03:20:15;99988.34;;;0.87;60.37
34103;BME280;20381;54.498;18.206;2023-04-28T03:22:41;99991.33;;;0.85;60.42
34103;BME280;20381;54.498;18.206;2023-04-28T03:25:08;99993.05;;;0.84;60.39
34103;BME280;20381;54.498;18.206;2023-04-28T03:27:34;99989.19;;;0.83;60.31
34103;BME280;20381;54.498;18.206;2023-04-28T03:30:00;99990.05;;;0.85;60.41
34103;BME280;20381;54.498;18.206;2023-04-28T03:32:27;99997.31;;;0.88;60.39
34103;BME280;20381;54.498;18.206;2023-04-28T03:34:53;99992.59;;;0.91;60.35
34103;BME280;20381;54.498;18.206;2023-04-28T03:37:19;99992.98;;;0.95;60.38
34103;BME280;20381;54.498;18.206;2023-04-28T03:39:45;99995.58;;;0.98;60.45
34103;BME280;20381;54.498;18.206;2023-04-28T03:42:12;99994.69;;;1.02;60.46
34103;BME280;20381;54.498;18.206;2023-04-28T03:44:38;99994.66;;;1.08;60.59
34103;BME280;20381;54.498;18.206;2023-04-28T03:47:06;99997.22;;;1.11;60.49
34103;BME280;20381;54.498;18.206;2023-04-28T03:49:33;100000.21;;;1.16;60.69
34103;BME280;20381;54.498;18.206;2023-04-28T03:52:01;99999.77;;;1.21;60.75
34103;BME280;20381;54.498;18.206;2023-04-28T03:54:29;99995.42;;;1.26;60.81
34103;BME280;20381;54.498;18.206;2023-04-28T03:56:56;100004.42;;;1.32;60.71
34103;BME280;20381;54.498;18.206;2023-04-28T03:59:23;100002.27;;;1.33;60.72
34103;BME280;20381;54.498;18.206;2023-04-28T04:01:49;99999.22;;;1.41;60.88
34103;BME280;20381;54.498;18.206;2023-04-28T04:04:15;100006.03;;;1.51;60.92
34103;BME280;20381;54.498;18.206;2023-04-28T04:06:42;100001.67;;;1.60;61.02
34103;BME280;20381;54.498;18.206;2023-04-28T04:09:08;100005.92;;;1.67;61.07
34103;BME280;20381;54.498;18.206;2023-04-28T04:11:34;99999.02;;;1.76;61.14
34103;BME280;20381;54.498;18.206;2023-04-28T04:14:00;100002.37;;;1.88;61.28
34103;BME280;20381;54.498;18.206;2023-04-28T04:16:27;100003.98;;;1.99;61.40
34103;BME280;20381;54.498;18.206;2023-04-28T04:18:55;100001.38;;;2.03;61.29
34103;BME280;20381;54.498;18.206;2023-04-28T04:21:21;100013.30;;;2.13;61.48
34103;BME280;20381;54.498;18.206;2023-04-28T04:23:47;100011.48;;;2.24;61.61
34103;BME280;20381;54.498;18.206;2023-04-28T04:26:15;100010.95;;;2.38;61.64
34103;BME280;20381;54.498;18.206;2023-04-28T04:28:41;100007.78;;;2.56;61.65
34103;BME280;20381;54.498;18.206;2023-04-28T04:31:08;100010.22;;;2.68;61.72
34103;BME280;20381;54.498;18.206;2023-04-28T04:33:38;100010.92;;;2.82;61.66
34103;BME280;20381;54.498;18.206;2023-04-28T04:36:08;100013.78;;;2.97;61.78
34103;BME280;20381;54.498;18.206;2023-04-28T04:38:32;100012.29;;;3.14;61.75
34103;BME280;20381;54.498;18.206;2023-04-28T04:40:58;100007.80;;;3.28;61.85
34103;BME280;20381;54.498;18.206;2023-04-28T04:43:24;100013.20;;;3.42;61.93
34103;BME280;20381;54.498;18.206;2023-04-28T04:45:51;100018.62;;;3.55;61.78
34103;BME280;20381;54.498;18.206;2023-04-28T04:48:17;100010.67;;;3.70;61.85
34103;BME280;20381;54.498;18.206;2023-04-28T04:50:43;100009.59;;;3.84;61.80
34103;BME280;20381;54.498;18.206;2023-04-28T04:53:10;100012.79;;;4.01;61.89
34103;BME280;20381;54.498;18.206;2023-04-28T04:55:38;100017.64;;;4.19;61.90
34103;BME280;20381;54.498;18.206;2023-04-28T04:58:06;100016.05;;;4.38;61.95
34103;BME280;20381;54.498;18.206;2023-04-28T05:00:32;100014.41;;;4.56;62.03
34103;BME280;20381;54.498;18.206;2023-04-28T05:02:59;100018.44;;;4.73;61.91
34103;BME280;20381;54.498;18.206;2023-04-28T05:05:25;100006.09;;;4.87;61.90
34103;BME280;20381;54.498;18.206;2023-04-28T05:07:53;100010.15;;;5.00;61.93
34103;BME280;20381;54.498;18.206;2023-04-28T05:10:19;100012.44;;;5.15;61.93
34103;BME280;20381;54.498;18.206;2023-04-28T05:12:46;100009.52;;;5.31;62.04
34103;BME280;20381;54.498;18.206;2023-04-28T05:15:15;100017.39;;;5.46;61.92
34103;BME280;20381;54.498;18.206;2023-04-28T05:17:42;100011.52;;;5.58;61.98
34103;BME280;20381;54.498;18.206;2023-04-28T05:20:09;100005.95;;;5.75;62.00
34103;BME280;20381;54.498;18.206;2023-04-28T05:22:36;100014.31;;;5.88;61.94
34103;BME280;20381;54.498;18.206;2023-04-28T05:25:02;100012.34;;;5.99;61.96
34103;BME280;20381;54.498;18.206;2023-04-28T05:27:31;100012.05;;;6.12;61.97
34103;BME280;20381;54.498;18.206;2023-04-28T05:29:57;100016.59;;;6.20;61.86
34103;BME280;20381;54.498;18.206;2023-04-28T05:32:24;100014.69;;;6.26;61.81
34103;BME280;20381;54.498;18.206;2023-04-28T05:34:51;100015.45;;;6.30;61.78
34103;BME280;20381;54.498;18.206;2023-04-28T05:37:17;100011.52;;;6.33;61.89
34103;BME280;20381;54.498;18.206;2023-04-28T05:39:43;100009.50;;;6.44;62.07
34103;BME280;20381;54.498;18.206;2023-04-28T05:42:09;100013.59;;;6.53;61.92
34103;BME280;20381;54.498;18.206;2023-04-28T05:44:36;100017.61;;;6.65;62.05
34103;BME280;20381;54.498;18.206;2023-04-28T05:47:03;100011.99;;;6.80;62.03
34103;BME280;20381;54.498;18.206;2023-04-28T05:49:29;100007.36;;;6.91;61.99
34103;BME280;20381;54.498;18.206;2023-04-28T05:51:55;100014.64;;;7.10;62.17
34103;BME280;20381;54.498;18.206;2023-04-28T05:54:21;100010.63;;;7.29;62.11
34103;BME280;20381;54.498;18.206;2023-04-28T05:56:48;100009.28;;;7.46;62.12
34103;BME280;20381;54.498;18.206;2023-04-28T05:59:20;100011.02;;;7.60;62.17
34103;BME280;20381;54.498;18.206;2023-04-28T06:01:44;100002.63;;;7.78;62.10
34103;BME280;20381;54.498;18.206;2023-04-28T06:04:10;100003.85;;;7.95;62.16
34103;BME280;20381;54.498;18.206;2023-04-28T06:06:36;100005.98;;;8.23;62.19
34103;BME280;20381;54.498;18.206;2023-04-28T06:09:03;100006.68;;;8.42;61.96
34103;BME280;20381;54.498;18.206;2023-04-28T06:11:29;100005.06;;;8.51;61.74
34103;BME280;20381;54.498;18.206;2023-04-28T06:14:00;100009.55;;;8.59;61.65
34103;BME280;20381;54.498;18.206;2023-04-28T06:16:27;100006.30;;;8.66;61.65
34103;BME280;20381;54.498;18.206;2023-04-28T06:18:53;100011.14;;;8.77;61.55
34103;BME280;20381;54.498;18.206;2023-04-28T06:21:25;100012.27;;;8.93;61.51
34103;BME280;20381;54.498;18.206;2023-04-28T06:23:50;100016.83;;;9.11;61.62
34103;BME280;20381;54.498;18.206;2023-04-28T06:26:16;100008.23;;;9.33;61.23
34103;BME280;20381;54.498;18.206;2023-04-28T06:28:43;100008.44;;;9.50;61.45
34103;BME280;20381;54.498;18.206;2023-04-28T06:31:09;100004.47;;;9.74;61.37
34103;BME280;20381;54.498;18.206;2023-04-28T06:33:35;100006.48;;;9.99;61.50
34103;BME280;20381;54.498;18.206;2023-04-28T06:36:02;99999.28;;;10.16;60.68
34103;BME280;20381;54.498;18.206;2023-04-28T06:38:35;100005.14;;;10.33;60.68
34103;BME280;20381;54.498;18.206;2023-04-28T06:40:58;99997.12;;;10.58;60.73
34103;BME280;20381;54.498;18.206;2023-04-28T06:43:26;99996.06;;;10.93;60.74
34103;BME280;20381;54.498;18.206;2023-04-28T06:45:53;99996.56;;;11.20;60.38
34103;BME280;20381;54.498;18.206;2023-04-28T06:48:19;99994.08;;;11.65;60.15
34103;BME280;20381;54.498;18.206;2023-04-28T06:50:47;99994.08;;;11.65;60.15
34103;BME280;20381;54.498;18.206;2023-04-28T06:53:13;99998.40;;;11.94;60.26
34103;BME280;20381;54.498;18.206;2023-04-28T06:55:39;99991.88;;;12.28;59.87
34103;BME280;20381;54.498;18.206;2023-04-28T06:58:06;99997.33;;;12.67;60.09
34103;BME280;20381;54.498;18.206;2023-04-28T07:00:33;99996.51;;;13.00;59.87
34103;BME280;20381;54.498;18.206;2023-04-28T07:03:00;99996.00;;;13.42;59.91
34103;BME280;20381;54.498;18.206;2023-04-28T07:05:26;99987.03;;;14.01;59.49
34103;BME280;20381;54.498;18.206;2023-04-28T07:07:55;99983.67;;;14.74;59.32
34103;BME280;20381;54.498;18.206;2023-04-28T07:10:23;99986.39;;;15.01;58.88
34103;BME280;20381;54.498;18.206;2023-04-28T07:12:56;99979.58;;;15.69;59.17
34103;BME280;20381;54.498;18.206;2023-04-28T07:15:21;99985.44;;;16.26;58.33
34103;BME280;20381;54.498;18.206;2023-04-28T07:17:52;99981.97;;;16.97;58.43
34103;BME280;20381;54.498;18.206;2023-04-28T07:20:18;99975.00;;;17.40;56.83
34103;BME280;20381;54.498;18.206;2023-04-28T07:22:44;99982.84;;;17.16;57.35
34103;BME280;20381;54.498;18.206;2023-04-28T07:25:11;99972.42;;;17.88;55.63
34103;BME280;20381;54.498;18.206;2023-04-28T07:27:37;99978.22;;;17.38;54.82
34103;BME280;20381;54.498;18.206;2023-04-28T07:30:07;99976.00;;;16.62;54.35
34103;BME280;20381;54.498;18.206;2023-04-28T07:32:33;99971.16;;;15.76;53.12
34103;BME280;20381;54.498;18.206;2023-04-28T07:35:01;99972.42;;;14.93;53.10
34103;BME280;20381;54.498;18.206;2023-04-28T07:37:28;99970.52;;;14.60;53.87
34103;BME280;20381;54.498;18.206;2023-04-28T07:39:55;99977.98;;;14.51;53.59
34103;BME280;20381;54.498;18.206;2023-04-28T07:42:23;99972.67;;;14.23;52.80
34103;BME280;20381;54.498;18.206;2023-04-28T07:44:51;99981.20;;;13.80;52.85
34103;BME280;20381;54.498;18.206;2023-04-28T07:47:18;99969.63;;;13.69;52.54
34103;BME280;20381;54.498;18.206;2023-04-28T07:49:44;99963.96;;;13.60;52.51
34103;BME280;20381;54.498;18.206;2023-04-28T07:52:10;99969.61;;;13.61;52.44
34103;BME280;20381;54.498;18.206;2023-04-28T07:54:36;99966.59;;;14.88;54.73
34103;BME280;20381;54.498;18.206;2023-04-28T07:57:05;99953.65;;;17.06;53.38
34103;BME280;20381;54.498;18.206;2023-04-28T07:59:33;99947.77;;;17.63;50.91
34103;BME280;20381;54.498;18.206;2023-04-28T08:01:59;99954.81;;;17.39;49.98
34103;BME280;20381;54.498;18.206;2023-04-28T08:04:26;99956.55;;;16.96;50.55
34103;BME280;20381;54.498;18.206;2023-04-28T08:06:53;99957.17;;;16.74;50.79
34103;BME280;20381;54.498;18.206;2023-04-28T08:09:19;99959.05;;;17.84;52.57
34103;BME280;20381;54.498;18.206;2023-04-28T08:11:45;99955.98;;;19.17;51.64
34103;BME280;20381;54.498;18.206;2023-04-28T08:14:11;99953.64;;;20.85;50.90
34103;BME280;20381;54.498;18.206;2023-04-28T08:16:41;99952.12;;;22.54;51.32
34103;BME280;20381;54.498;18.206;2023-04-28T08:19:07;99951.45;;;24.26;48.03
34103;BME280;20381;54.498;18.206;2023-04-28T08:21:34;99939.41;;;25.43;48.92
34103;BME280;20381;54.498;18.206;2023-04-28T08:24:03;99947.95;;;25.04;44.47
34103;BME280;20381;54.498;18.206;2023-04-28T08:26:29;99958.16;;;23.59;45.63
34103;BME280;20381;54.498;18.206;2023-04-28T08:28:56;99947.50;;;22.56;46.77
34103;BME280;20381;54.498;18.206;2023-04-28T08:31:29;99952.02;;;21.18;45.30
34103;BME280;20381;54.498;18.206;2023-04-28T08:33:53;99952.92;;;20.83;47.20
34103;BME280;20381;54.498;18.206;2023-04-28T08:36:21;99939.59;;;22.27;47.61
34103;BME280;20381;54.498;18.206;2023-04-28T08:38:49;99944.27;;;24.05;46.69
34103;BME280;20381;54.498;18.206;2023-04-28T08:41:16;99942.13;;;25.59;45.28
34103;BME280;20381;54.498;18.206;2023-04-28T08:43:44;99936.19;;;26.55;42.98
34103;BME280;20381;54.498;18.206;2023-04-28T08:46:10;99937.35;;;27.17;44.03
34103;BME280;20381;54.498;18.206;2023-04-28T08:48:44;99932.81;;;28.37;43.53
34103;BME280;20381;54.498;18.206;2023-04-28T08:51:13;99926.88;;;29.45;38.45
34103;BME280;20381;54.498;18.206;2023-04-28T08:53:43;99922.75;;;30.28;42.30
34103;BME280;20381;54.498;18.206;2023-04-28T08:56:10;99925.69;;;29.58;38.86
34103;BME280;20381;54.498;18.206;2023-04-28T08:58:38;99926.67;;;28.13;35.57
34103;BME280;20381;54.498;18.206;2023-04-28T09:01:05;99932.72;;;27.65;38.78
34103;BME280;20381;54.498;18.206;2023-04-28T09:03:31;99928.95;;;28.58;38.11
34103;BME280;20381;54.498;18.206;2023-04-28T09:05:58;99925.06;;;28.61;36.53
34103;BME280;20381;54.498;18.206;2023-04-28T09:08:27;99925.30;;;27.71;36.41
34103;BME280;20381;54.498;18.206;2023-04-28T09:11:10;99929.82;;;26.24;35.03
34103;BME280;20381;54.498;18.206;2023-04-28T09:13:40;99930.95;;;25.13;35.57
34103;BME280;20381;54.498;18.206;2023-04-28T09:16:07;99932.51;;;23.94;35.06
34103;BME280;20381;54.498;18.206;2023-04-28T09:18:33;99934.20;;;22.80;34.70
34103;BME280;20381;54.498;18.206;2023-04-28T09:21:07;99929.16;;;21.72;33.97
34103;BME280;20381;54.498;18.206;2023-04-28T09:23:45;99938.95;;;20.65;34.08
34103;BME280;20381;54.498;18.206;2023-04-28T09:26:06;99938.85;;;19.93;33.74
34103;BME280;20381;54.498;18.206;2023-04-28T09:28:34;99939.99;;;19.24;33.68
34103;BME280;20381;54.498;18.206;2023-04-28T09:31:01;99930.72;;;19.01;34.04
34103;BME280;20381;54.498;18.206;2023-04-28T09:33:28;99940.09;;;20.57;35.02
34103;BME280;20381;54.498;18.206;2023-04-28T09:35:58;99926.64;;;23.13;35.22
34103;BME280;20381;54.498;18.206;2023-04-28T09:38:24;99920.84;;;24.91;34.03
34103;BME280;20381;54.498;18.206;2023-04-28T09:41:01;99920.00;;;25.25;32.42
34103;BME280;20381;54.498;18.206;2023-04-28T09:43:33;99922.10;;;24.78;30.98
34103;BME280;20381;54.498;18.206;2023-04-28T09:46:01;99916.06;;;24.20;31.27
34103;BME280;20381;54.498;18.206;2023-04-28T09:48:35;99919.72;;;23.79;31.95
34103;BME280;20381;54.498;18.206;2023-04-28T09:51:08;99926.31;;;23.12;31.03
34103;BME280;20381;54.498;18.206;2023-04-28T09:53:34;99926.02;;;21.82;30.93
34103;BME280;20381;54.498;18.206;2023-04-28T09:56:02;99937.17;;;20.91;31.04
34103;BME280;20381;54.498;18.206;2023-04-28T09:58:33;99928.27;;;20.34;31.13
34103;BME280;20381;54.498;18.206;2023-04-28T10:01:00;99926.97;;;19.81;31.06
34103;BME280;20381;54.498;18.206;2023-04-28T10:03:29;99927.47;;;19.15;30.91
34103;BME280;20381;54.498;18.206;2023-04-28T10:05:56;99927.77;;;18.37;30.78
34103;BME280;20381;54.498;18.206;2023-04-28T10:08:26;99924.52;;;17.87;30.98
34103;BME280;20381;54.498;18.206;2023-04-28T10:10:53;99928.06;;;17.38;30.83
34103;BME280;20381;54.498;18.206;2023-04-28T10:13:20;99931.75;;;17.11;30.82
34103;BME280;20381;54.498;18.206;2023-04-28T10:15:48;99925.83;;;16.76;30.86
34103;BME280;20381;54.498;18.206;2023-04-28T10:18:15;99922.31;;;16.63;31.20
34103;BME280;20381;54.498;18.206;2023-04-28T10:20:45;99928.77;;;16.59;31.10
34103;BME280;20381;54.498;18.206;2023-04-28T10:26:13;99920.95;;;17.33;31.74
34103;BME280;20381;54.498;18.206;2023-04-28T10:28:48;99917.13;;;19.12;31.45
34103;BME280;20381;54.498;18.206;2023-04-28T10:31:17;99913.30;;;20.18;31.19
34103;BME280;20381;54.498;18.206;2023-04-28T10:33:46;99903.03;;;21.42;31.59
34103;BME280;20381;54.498;18.206;2023-04-28T10:36:50;99898.99;;;22.25;30.82
34103;BME280;20381;54.498;18.206;2023-04-28T10:39:19;99903.19;;;22.28;30.52
34103;BME280;20381;54.498;18.206;2023-04-28T10:41:46;99908.72;;;22.21;30.53
34103;BME280;20381;54.498;18.206;2023-04-28T10:47:07;99906.16;;;21.57;30.67
34103;BME280;20381;54.498;18.206;2023-04-28T11:00:50;99907.98;;;20.03;30.29
34103;BME280;20381;54.498;18.206;2023-04-28T11:03:47;99913.95;;;20.83;30.50
34103;BME280;20381;54.498;18.206;2023-04-28T11:06:22;99910.47;;;20.98;29.59
34103;BME280;20381;54.498;18.206;2023-04-28T11:08:51;99908.52;;;20.69;29.85
34103;BME280;20381;54.498;18.206;2023-04-28T11:11:29;99908.87;;;20.55;29.66
34103;BME280;20381;54.498;18.206;2023-04-28T11:13:54;99915.72;;;19.95;29.48
34103;BME280;20381;54.498;18.206;2023-04-28T11:16:23;99911.23;;;19.19;29.80
34103;BME280;20381;54.498;18.206;2023-04-28T11:18:52;99908.00;;;18.71;29.87
34103;BME280;20381;54.498;18.206;2023-04-28T11:21:20;99904.72;;;18.50;29.93
34103;BME280;20381;54.498;18.206;2023-04-28T11:23:48;99907.47;;;18.32;29.91
34103;BME280;20381;54.498;18.206;2023-04-28T11:26:14;99906.73;;;18.30;29.97
34103;BME280;20381;54.498;18.206;2023-04-28T11:28:53;99907.47;;;18.32;30.05
34103;BME280;20381;54.498;18.206;2023-04-28T11:31:24;99909.87;;;18.35;29.88
34103;BME280;20381;54.498;18.206;2023-04-28T11:34:06;99908.83;;;18.66;30.06
34103;BME280;20381;54.498;18.206;2023-04-28T11:36:37;99899.75;;;19.41;30.57
34103;BME280;20381;54.498;18.206;2023-04-28T11:39:06;99886.78;;;21.60;30.64
34103;BME280;20381;54.498;18.206;2023-04-28T11:41:38;99885.64;;;22.45;29.75
34103;BME280;20381;54.498;18.206;2023-04-28T11:44:15;99895.05;;;22.39;29.28
34103;BME280;20381;54.498;18.206;2023-04-28T11:46:59;99886.69;;;21.95;29.11
34103;BME280;20381;54.498;18.206;2023-04-28T11:49:27;99887.52;;;22.05;29.68
34103;BME280;20381;54.498;18.206;2023-04-28T11:52:06;99884.06;;;22.89;28.52
34103;BME280;20381;54.498;18.206;2023-04-28T11:54:32;99889.02;;;23.12;28.49
34103;BME280;20381;54.498;18.206;2023-04-28T11:57:01;99887.80;;;22.55;28.32
34103;BME280;20381;54.498;18.206;2023-04-28T11:59:34;99888.80;;;21.92;28.58
34103;BME280;20381;54.498;18.206;2023-04-28T12:02:05;99877.98;;;21.35;28.61
34103;BME280;20381;54.498;18.206;2023-04-28T12:04:38;99883.31;;;20.69;28.39
34103;BME280;20381;54.498;18.206;2023-04-28T12:07:14;99891.83;;;20.21;28.41
34103;BME280;20381;54.498;18.206;2023-04-28T12:09:45;99887.98;;;19.99;28.48
34103;BME280;20381;54.498;18.206;2023-04-28T12:12:32;99887.60;;;19.77;28.61
34103;BME280;20381;54.498;18.206;2023-04-28T12:15:00;99885.70;;;19.73;28.18
34103;BME280;20381;54.498;18.206;2023-04-28T12:17:29;99886.31;;;19.60;28.33
34103;BME280;20381;54.498;18.206;2023-04-28T12:19:59;99881.74;;;19.62;28.21
34103;BME280;20381;54.498;18.206;2023-04-28T12:22:30;99877.81;;;19.51;28.06
34103;BME280;20381;54.498;18.206;2023-04-28T12:25:08;99876.84;;;19.14;28.34
34103;BME280;20381;54.498;18.206;2023-04-28T12:27:36;99871.83;;;18.88;28.42
34103;BME280;20381;54.498;18.206;2023-04-28T12:32:52;99869.64;;;17.85;28.15
34103;BME280;20381;54.498;18.206;2023-04-28T12:35:21;99871.13;;;17.22;28.40
34103;BME280;20381;54.498;18.206;2023-04-28T12:37:48;99873.83;;;16.78;28.43
34103;BME280;20381;54.498;18.206;2023-04-28T12:40:16;99873.28;;;16.61;29.06
34103;BME280;20381;54.498;18.206;2023-04-28T12:42:43;99869.14;;;16.64;29.26
34103;BME280;20381;54.498;18.206;2023-04-28T12:45:09;99867.39;;;16.70;29.12
34103;BME280;20381;54.498;18.206;2023-04-28T12:47:37;99861.69;;;16.89;29.14
34103;BME280;20381;54.498;18.206;2023-04-28T12:50:05;99856.11;;;16.99;29.11
34103;BME280;20381;54.498;18.206;2023-04-28T12:52:39;99861.67;;;17.07;29.06
34103;BME280;20381;54.498;18.206;2023-04-28T12:55:03;99853.50;;;16.73;29.15
34103;BME280;20381;54.498;18.206;2023-04-28T12:57:35;99859.60;;;16.43;28.99
34103;BME280;20381;54.498;18.206;2023-04-28T13:00:03;99852.16;;;16.04;29.20
34103;BME280;20381;54.498;18.206;2023-04-28T13:02:30;99852.16;;;15.91;29.22
34103;BME280;20381;54.498;18.206;2023-04-28T13:05:00;99847.34;;;15.51;29.32
34103;BME280;20381;54.498;18.206;2023-04-28T13:07:27;99845.94;;;15.25;29.17
34103;BME280;20381;54.498;18.206;2023-04-28T13:09:54;99844.67;;;15.11;29.47
34103;BME280;20381;54.498;18.206;2023-04-28T13:12:21;99842.28;;;14.86;29.37
34103;BME280;20381;54.498;18.206;2023-04-28T13:14:51;99842.86;;;14.70;29.51
34103;BME280;20381;54.498;18.206;2023-04-28T13:17:32;99841.28;;;14.53;29.45